sensor_id;sensor_type;location;lat;lon;timestamp;pressure;altitude;pressure_sealevel;temperature;humidity
53758;BME280;39674;59.860;30.672;2023-02-02T00:00:36;99580.69;;;-1.43;100.00
53758;BME280;39674;59.860;30.672;2023-02-02T00:03:23;99585.00;;;-1.42;100.00
53758;BME280;39674;59.860;30.672;2023-02-02T00:06:07;99579.91;;;-1.46;100.00
53758;BME280;39674;59.860;30.672;2023-02-02T00:08:46;99585.97;;;-1.47;100.00
53758;BME280;39674;59.860;30.672;2023-02-02T00:11:28;99582.53;;;-1.49;100.00
53758;BME280;39674;59.860;30.672;2023-02-02T00:14:29;99579.94;;;-1.49;100.00
53758;BME280;39674;59.860;30.672;2023-02-02T00:17:01;99582.56;;;-1.50;100.00
53758;BME280;39674;59.860;30.672;2023-02-02T00:19:38;99580.00;;;-1.50;100.00
53758;BME280;39674;59.860;30.672;2023-02-02T00:22:28;99577.34;;;-1.49;100.00
53758;BME280;39674;59.860;30.672;2023-02-02T00:25:06;99586.00;;;-1.50;100.00
53758;BME280;39674;59.860;30.672;2023-02-02T00:27:57;99585.13;;;-1.49;100.00
53758;BME280;39674;59.860;30.672;2023-02-02T00:30:42;99476.09;;;-2.19;100.00
53758;BME280;39674;59.860;30.672;2023-02-02T00:33:20;99584.31;;;-1.51;100.00
53758;BME280;39674;59.860;30.672;2023-02-02T00:36:39;99581.75;;;-1.51;100.00
53758;BME280;39674;59.860;30.672;2023-02-02T00:39:16;99584.31;;;-1.51;100.00
53758;BME280;39674;59.860;30.672;2023-02-02T00:41:54;99582.53;;;-1.49;100.00
53758;BME280;39674;59.860;30.672;2023-02-02T00:44:46;99587.72;;;-1.49;100.00
53758;BME280;39674;59.860;30.672;2023-02-02T00:47:36;99564.75;;;-1.64;100.00
53758;BME280;39674;59.860;30.672;2023-02-02T00:50:12;99585.13;;;-1.49;100.00
53758;BME280;39674;59.860;30.672;2023-02-02T00:52:58;99587.72;;;-1.49;100.00
53758;BME280;39674;59.860;30.672;2023-02-02T00:55:36;99586.00;;;-1.50;100.00
53758;BME280;39674;59.860;30.672;2023-02-02T00:58:19;99587.78;;;-1.52;100.00
53758;BME280;39674;59.860;30.672;2023-02-02T01:01:13;99586.94;;;-1.52;100.00
53758;BME280;39674;59.860;30.672;2023-02-02T01:03:53;99582.63;;;-1.52;100.00
53758;BME280;39674;59.860;30.672;2023-02-02T01:06:32;99573.97;;;-1.51;100.00
53758;BME280;39674;59.860;30.672;2023-02-02T01:10:14;99579.16;;;-1.51;100.00
53758;BME280;39674;59.860;30.672;2023-02-02T01:12:25;99575.78;;;-1.56;100.00
53758;BME280;39674;59.860;30.672;2023-02-02T01:14:59;99578.16;;;-1.45;100.00
53758;BME280;39674;59.860;30.672;2023-02-02T01:17:35;99575.66;;;-1.50;100.00
53758;BME280;39674;59.860;30.672;2023-02-02T01:20:11;99573.97;;;-1.51;100.00
53758;BME280;39674;59.860;30.672;2023-02-02T01:22:53;99575.66;;;-1.50;100.00
53758;BME280;39674;59.860;30.672;2023-02-02T01:25:25;99568.78;;;-1.51;100.00
53758;BME280;39674;59.860;30.672;2023-02-02T01:28:01;99576.53;;;-1.49;100.00
53758;BME280;39674;59.860;30.672;2023-02-02T01:30:34;99577.41;;;-1.50;100.00
53758;BME280;39674;59.860;30.672;2023-02-02T01:33:19;99579.94;;;-1.49;100.00
53758;BME280;39674;59.860;30.672;2023-02-02T01:39:07;99583.38;;;-1.47;100.00
53758;BME280;39674;59.860;30.672;2023-02-02T01:41:44;99578.25;;;-1.50;100.00
53758;BME280;39674;59.860;30.672;2023-02-02T01:47:25;99575.59;;;-1.47;100.00
53758;BME280;39674;59.860;30.672;2023-02-02T01:50:10;99576.53;;;-1.49;100.00
53758;BME280;39674;59.860;30.672;2023-02-02T01:52:42;99573.13;;;-1.53;100.00
53758;BME280;39674;59.860;30.672;2023-02-02T01:55:44;99580.75;;;-1.45;100.00
53758;BME280;39674;59.860;30.672;2023-02-02T01:58:23;99579.06;;;-1.48;100.00
53758;BME280;39674;59.860;30.672;2023-02-02T02:00:55;99585.03;;;-1.44;100.00
53758;BME280;39674;59.860;30.672;2023-02-02T02:03:54;99586.81;;;-1.46;100.00
53758;BME280;39674;59.860;30.672;2023-02-02T02:06:42;99591.19;;;-1.48;100.00
53758;BME280;39674;59.860;30.672;2023-02-02T02:09:24;99592.97;;;-1.52;100.00
53758;BME280;39674;59.860;30.672;2023-02-02T02:11:56;99591.25;;;-1.53;100.00
53758;BME280;39674;59.860;30.672;2023-02-02T02:14:32;99593.84;;;-1.53;100.00
53758;BME280;39674;59.860;30.672;2023-02-02T02:17:29;99596.44;;;-1.53;100.00
53758;BME280;39674;59.860;30.672;2023-02-02T02:20:22;99593.88;;;-1.54;100.00
53758;BME280;39674;59.860;30.672;2023-02-02T02:26:39;99594.72;;;-1.54;100.00
53758;BME280;39674;59.860;30.672;2023-02-02T02:29:37;99605.09;;;-1.54;100.00
53758;BME280;39674;59.860;30.672;2023-02-02T02:32:31;99601.63;;;-1.53;100.00
53758;BME280;39674;59.860;30.672;2023-02-02T02:35:13;99600.81;;;-1.56;100.00
53758;BME280;39674;59.860;30.672;2023-02-02T02:37:51;99606.91;;;-1.59;100.00
53758;BME280;39674;59.860;30.672;2023-02-02T02:40:33;99602.63;;;-1.60;100.00
53758;BME280;39674;59.860;30.672;2023-02-02T02:43:05;99603.50;;;-1.61;100.00
53758;BME280;39674;59.860;30.672;2023-02-02T02:45:40;99603.50;;;-1.61;100.00
53758;BME280;39674;59.860;30.672;2023-02-02T02:53:46;99615.53;;;-1.57;100.00
53758;BME280;39674;59.860;30.672;2023-02-02T02:56:30;99619.00;;;-1.58;100.00
53758;BME280;39674;59.860;30.672;2023-02-02T02:59:05;99621.53;;;-1.56;100.00
53758;BME280;39674;59.860;30.672;2023-02-02T03:01:50;99622.38;;;-1.56;100.00
53758;BME280;39674;59.860;30.672;2023-02-02T03:04:39;99622.38;;;-1.56;100.00
53758;BME280;39674;59.860;30.672;2023-02-02T03:07:22;99630.16;;;-1.56;100.00
53758;BME280;39674;59.860;30.672;2023-02-02T03:09:55;99630.16;;;-1.56;100.00
53758;BME280;39674;59.860;30.672;2023-02-02T03:12:34;99637.13;;;-1.58;100.00
53758;BME280;39674;59.860;30.672;2023-02-02T03:15:15;99631.97;;;-1.61;100.00
53758;BME280;39674;59.860;30.672;2023-02-02T03:17:55;99638.88;;;-1.60;100.00
53758;BME280;39674;59.860;30.672;2023-02-02T03:20:31;99635.41;;;-1.59;100.00
53758;BME280;39674;59.860;30.672;2023-02-02T03:23:07;99641.47;;;-1.60;100.00
53758;BME280;39674;59.860;30.672;2023-02-02T03:25:56;99636.28;;;-1.60;100.00
53758;BME280;39674;59.860;30.672;2023-02-02T03:28:30;99637.19;;;-1.63;100.00
53758;BME280;39674;59.860;30.672;2023-02-02T03:31:05;99638.03;;;-1.62;100.00
53758;BME280;39674;59.860;30.672;2023-02-02T03:33:38;99636.31;;;-1.63;100.00
53758;BME280;39674;59.860;30.672;2023-02-02T03:36:18;99644.09;;;-1.63;100.00
53758;BME280;39674;59.860;30.672;2023-02-02T03:38:50;99641.50;;;-1.63;100.00
53758;BME280;39674;59.860;30.672;2023-02-02T03:41:24;99647.53;;;-1.61;100.00
53758;BME280;39674;59.860;30.672;2023-02-02T03:43:53;99637.16;;;-1.61;100.00
53758;BME280;39674;59.860;30.672;2023-02-02T03:46:28;99645.81;;;-1.62;100.00
53758;BME280;39674;59.860;30.672;2023-02-02T03:49:07;99640.63;;;-1.62;100.00
53758;BME280;39674;59.860;30.672;2023-02-02T03:51:58;99651.03;;;-1.64;100.00
53758;BME280;39674;59.860;30.672;2023-02-02T03:54:30;99655.38;;;-1.64;100.00
53758;BME280;39674;59.860;30.672;2023-02-02T03:57:00;99651.09;;;-1.67;100.00
53758;BME280;39674;59.860;30.672;2023-02-02T03:59:30;99653.69;;;-1.68;100.00
53758;BME280;39674;59.860;30.672;2023-02-02T04:02:05;99653.75;;;-1.71;100.00
53758;BME280;39674;59.860;30.672;2023-02-02T04:04:41;99660.69;;;-1.73;100.00
53758;BME280;39674;59.860;30.672;2023-02-02T04:07:09;99661.56;;;-1.74;100.00
53758;BME280;39674;59.860;30.672;2023-02-02T04:09:52;99663.34;;;-1.76;100.00
53758;BME280;39674;59.860;30.672;2023-02-02T04:12:24;99667.63;;;-1.75;100.00
53758;BME280;39674;59.860;30.672;2023-02-02T04:14:57;99672.81;;;-1.75;100.00
53758;BME280;39674;59.860;30.672;2023-02-02T04:17:28;99670.22;;;-1.75;100.00
53758;BME280;39674;59.860;30.672;2023-02-02T04:20:02;99674.53;;;-1.76;100.00
53758;BME280;39674;59.860;30.672;2023-02-02T04:22:35;99672.81;;;-1.75;100.00
53758;BME280;39674;59.860;30.672;2023-02-02T04:25:26;99674.59;;;-1.78;100.00
53758;BME280;39674;59.860;30.672;2023-02-02T04:28:01;99676.28;;;-1.76;100.00
53758;BME280;39674;59.860;30.672;2023-02-02T04:30:42;99672.88;;;-1.79;100.00
53758;BME280;39674;59.860;30.672;2023-02-02T04:33:15;99679.81;;;-1.81;100.00
53758;BME280;39674;59.860;30.672;2023-02-02T04:35:48;99683.22;;;-1.79;100.00
53758;BME280;39674;59.860;30.672;2023-02-02T04:38:21;99681.59;;;-1.83;100.00
53758;BME280;39674;59.860;30.672;2023-02-02T04:41:07;99685.03;;;-1.84;100.00
53758;BME280;39674;59.860;30.672;2023-02-02T04:43:46;99689.38;;;-1.86;100.00
53758;BME280;39674;59.860;30.672;2023-02-02T04:46:23;99685.03;;;-1.84;100.00
53758;BME280;39674;59.860;30.672;2023-02-02T04:48:56;99685.03;;;-1.84;100.00
53758;BME280;39674;59.860;30.672;2023-02-02T04:51:40;99694.53;;;-1.84;100.00
53758;BME280;39674;59.860;30.672;2023-02-02T04:54:14;99688.50;;;-1.85;100.00
53758;BME280;39674;59.860;30.672;2023-02-02T04:56:46;99691.97;;;-1.86;100.00
53758;BME280;39674;59.860;30.672;2023-02-02T04:59:20;99695.44;;;-1.87;100.00
53758;BME280;39674;59.860;30.672;2023-02-02T05:01:53;99697.19;;;-1.89;100.00
53758;BME280;39674;59.860;30.672;2023-02-02T05:04:21;99696.34;;;-1.89;100.00
53758;BME280;39674;59.860;30.672;2023-02-02T05:06:54;99698.94;;;-1.89;100.00
53758;BME280;39674;59.860;30.672;2023-02-02T05:09:24;99702.38;;;-1.89;100.00
53758;BME280;39674;59.860;30.672;2023-02-02T05:11:53;99706.72;;;-1.91;100.00
53758;BME280;39674;59.860;30.672;2023-02-02T05:14:42;99711.88;;;-1.89;100.00
53758;BME280;39674;59.860;30.672;2023-02-02T05:17:28;99702.44;;;-1.92;100.00
53758;BME280;39674;59.860;30.672;2023-02-02T05:20:00;99713.66;;;-1.93;100.00
53758;BME280;39674;59.860;30.672;2023-02-02T05:22:32;99715.41;;;-1.95;100.00
53758;BME280;39674;59.860;30.672;2023-02-02T05:25:19;99712.81;;;-1.95;100.00
53758;BME280;39674;59.860;30.672;2023-02-02T05:27:57;99713.72;;;-1.98;100.00
53758;BME280;39674;59.860;30.672;2023-02-02T05:30:48;99720.63;;;-1.97;100.00
53758;BME280;39674;59.860;30.672;2023-02-02T05:33:40;99721.50;;;-1.96;100.00
53758;BME280;39674;59.860;30.672;2023-02-02T05:36:42;99724.06;;;-1.98;100.00
53758;BME280;39674;59.860;30.672;2023-02-02T05:39:26;99728.41;;;-1.98;100.00
53758;BME280;39674;59.860;30.672;2023-02-02T05:42:07;99727.53;;;-1.99;100.00
53758;BME280;39674;59.860;30.672;2023-02-02T05:44:55;99728.38;;;-1.97;100.00
53758;BME280;39674;59.860;30.672;2023-02-02T05:47:46;99730.97;;;-1.97;100.00
53758;BME280;39674;59.860;30.672;2023-02-02T05:53:54;99737.06;;;-1.99;100.00
53758;BME280;39674;59.860;30.672;2023-02-02T05:56:38;99738.75;;;-1.98;100.00
53758;BME280;39674;59.860;30.672;2023-02-02T05:59:28;99743.88;;;-1.95;100.00
53758;BME280;39674;59.860;30.672;2023-02-02T06:02:13;99749.13;;;-1.98;100.00
53758;BME280;39674;59.860;30.672;2023-02-02T06:05:15;99749.13;;;-1.98;100.00
53758;BME280;39674;59.860;30.672;2023-02-02T06:08:18;99754.28;;;-1.98;100.00
53758;BME280;39674;59.860;30.672;2023-02-02T06:14:30;99756.84;;;-1.97;100.00
53758;BME280;39674;59.860;30.672;2023-02-02T06:17:53;99763.75;;;-1.96;100.00
53758;BME280;39674;59.860;30.672;2023-02-02T06:24:36;99768.91;;;-1.96;100.00
53758;BME280;39674;59.860;30.672;2023-02-02T08:21:02;99855.97;;;-1.32;100.00
53758;BME280;39674;59.860;30.672;2023-02-02T08:24:21;99851.59;;;-1.30;100.00
53758;BME280;39674;59.860;30.672;2023-02-02T08:40:39;99869.69;;;-1.27;100.00
53758;BME280;39674;59.860;30.672;2023-02-02T08:43:27;99867.94;;;-1.26;100.00
53758;BME280;39674;59.860;30.672;2023-02-02T08:50:52;99875.69;;;-1.23;100.00
53758;BME280;39674;59.860;30.672;2023-02-02T09:16:03;99875.34;;;-1.03;100.00
53758;BME280;39674;59.860;30.672;2023-02-02T09:19:37;99880.47;;;-1.00;100.00
53758;BME280;39674;59.860;30.672;2023-02-02T09:22:47;99876.94;;;-0.96;100.00
53758;BME280;39674;59.860;30.672;2023-02-02T09:25:32;99888.13;;;-0.92;100.00
53758;BME280;39674;59.860;30.672;2023-02-02T09:28:33;99891.53;;;-0.90;100.00
53758;BME280;39674;59.860;30.672;2023-02-02T09:34:14;99883.94;;;-1.01;100.00
53758;BME280;39674;59.860;30.672;2023-02-02T09:37:03;99895.97;;;-0.97;100.00
53758;BME280;39674;59.860;30.672;2023-02-02T09:43:12;99899.41;;;-0.95;100.00
53758;BME280;39674;59.860;30.672;2023-02-02T09:46:55;99895.94;;;-0.94;100.00
53758;BME280;39674;59.860;30.672;2023-02-02T09:56:59;99895.84;;;-0.91;100.00
53758;BME280;39674;59.860;30.672;2023-02-02T10:02:32;99901.09;;;-0.94;100.00
53758;BME280;39674;59.860;30.672;2023-02-02T10:17:17;99904.50;;;-0.90;100.00
53758;BME280;39674;59.860;30.672;2023-02-02T10:20:32;99911.41;;;-0.91;100.00
53758;BME280;39674;59.860;30.672;2023-02-02T10:23:46;99911.47;;;-0.94;100.00
53758;BME280;39674;59.860;30.672;2023-02-02T10:27:01;99914.00;;;-0.91;100.00
53758;BME280;39674;59.860;30.672;2023-02-02T10:30:52;99915.72;;;-0.88;100.00
53758;BME280;39674;59.860;30.672;2023-02-02T10:34:10;99913.03;;;-0.84;100.00
53758;BME280;39674;59.860;30.672;2023-02-02T10:37:25;99920.78;;;-0.84;100.00
53758;BME280;39674;59.860;30.672;2023-02-02T10:43:37;99913.09;;;-0.87;100.00
53758;BME280;39674;59.860;30.672;2023-02-02T10:49:04;99926.09;;;-0.88;100.00
53758;BME280;39674;59.860;30.672;2023-02-02T12:44:51;99999.06;;;-1.15;100.00
53758;BME280;39674;59.860;30.672;2023-02-02T12:51:26;100009.47;;;-1.16;100.00
53758;BME280;39674;59.860;30.672;2023-02-02T13:04:46;100018.00;;;-1.11;100.00
53758;BME280;39674;59.860;30.672;2023-02-02T13:08:13;100020.66;;;-1.16;100.00
53758;BME280;39674;59.860;30.672;2023-02-02T13:14:49;100025.03;;;-1.19;100.00
53758;BME280;39674;59.860;30.672;2023-02-02T13:19:12;100025.91;;;-1.19;100.00
53758;BME280;39674;59.860;30.672;2023-02-02T13:21:03;100038.88;;;-1.20;100.00
53758;BME280;39674;59.860;30.672;2023-02-02T13:28:44;100038.91;;;-1.22;100.00
